sensor_id;sensor_type;location;lat;lon;timestamp;temperature;humidity
16732;DHT22;8484;50.904;9.192;2023-08-12T00:02:15;18.20;99.90
16732;DHT22;8484;50.904;9.192;2023-08-12T00:04:41;18.20;99.90
16732;DHT22;8484;50.904;9.192;2023-08-12T00:07:08;18.10;99.90
16732;DHT22;8484;50.904;9.192;2023-08-12T00:09:35;18.10;99.90
16732;DHT22;8484;50.904;9.192;2023-08-12T00:12:03;18.10;99.90
16732;DHT22;8484;50.904;9.192;2023-08-12T00:14:30;18.10;99.90
16732;DHT22;8484;50.904;9.192;2023-08-12T00:16:58;18.10;99.90
16732;DHT22;8484;50.904;9.192;2023-08-12T00:19:25;18.10;99.90
16732;DHT22;8484;50.904;9.192;2023-08-12T00:21:51;18.10;99.90
16732;DHT22;8484;50.904;9.192;2023-08-12T00:24:18;18.20;99.90
16732;DHT22;8484;50.904;9.192;2023-08-12T00:26:45;18.20;99.90
16732;DHT22;8484;50.904;9.192;2023-08-12T00:29:12;18.20;99.90
16732;DHT22;8484;50.904;9.192;2023-08-12T00:31:39;18.20;99.90
16732;DHT22;8484;50.904;9.192;2023-08-12T00:34:07;18.20;99.90
16732;DHT22;8484;50.904;9.192;2023-08-12T00:36:34;18.30;99.90
16732;DHT22;8484;50.904;9.192;2023-08-12T00:39:00;18.40;99.90
16732;DHT22;8484;50.904;9.192;2023-08-12T00:41:29;18.40;99.90
16732;DHT22;8484;50.904;9.192;2023-08-12T00:43:56;18.50;99.90
16732;DHT22;8484;50.904;9.192;2023-08-12T00:46:23;18.50;99.90
16732;DHT22;8484;50.904;9.192;2023-08-12T00:48:50;18.70;99.90
16732;DHT22;8484;50.904;9.192;2023-08-12T00:51:19;18.60;99.90
16732;DHT22;8484;50.904;9.192;2023-08-12T00:53:46;18.70;99.90
16732;DHT22;8484;50.904;9.192;2023-08-12T00:56:13;18.70;99.90
16732;DHT22;8484;50.904;9.192;2023-08-12T00:58:40;18.60;99.90
16732;DHT22;8484;50.904;9.192;2023-08-12T01:01:08;18.50;99.90
16732;DHT22;8484;50.904;9.192;2023-08-12T01:03:34;18.60;99.90
16732;DHT22;8484;50.904;9.192;2023-08-12T01:06:02;18.70;99.90
16732;DHT22;8484;50.904;9.192;2023-08-12T01:08:31;18.80;99.90
16732;DHT22;8484;50.904;9.192;2023-08-12T01:11:03;18.70;99.90
16732;DHT22;8484;50.904;9.192;2023-08-12T01:13:42;18.60;99.90
16732;DHT22;8484;50.904;9.192;2023-08-12T01:16:13;18.50;99.90
16732;DHT22;8484;50.904;9.192;2023-08-12T01:18:43;18.40;99.90
16732;DHT22;8484;50.904;9.192;2023-08-12T01:21:15;18.60;99.90
16732;DHT22;8484;50.904;9.192;2023-08-12T01:23:44;18.50;99.90
16732;DHT22;8484;50.904;9.192;2023-08-12T01:26:11;18.60;99.90
16732;DHT22;8484;50.904;9.192;2023-08-12T01:28:38;18.50;99.90
16732;DHT22;8484;50.904;9.192;2023-08-12T01:31:08;18.50;99.90
16732;DHT22;8484;50.904;9.192;2023-08-12T01:33:43;18.50;99.90
16732;DHT22;8484;50.904;9.192;2023-08-12T01:36:16;18.60;99.90
16732;DHT22;8484;50.904;9.192;2023-08-12T01:38:45;18.60;99.90
16732;DHT22;8484;50.904;9.192;2023-08-12T01:41:14;18.40;99.90
16732;DHT22;8484;50.904;9.192;2023-08-12T01:43:42;18.50;99.90
16732;DHT22;8484;50.904;9.192;2023-08-12T01:46:09;18.40;99.90
16732;DHT22;8484;50.904;9.192;2023-08-12T01:48:37;18.20;99.90
16732;DHT22;8484;50.904;9.192;2023-08-12T01:51:04;18.40;99.90
16732;DHT22;8484;50.904;9.192;2023-08-12T01:53:30;18.40;99.90
16732;DHT22;8484;50.904;9.192;2023-08-12T01:55:59;18.50;99.90
16732;DHT22;8484;50.904;9.192;2023-08-12T01:58:26;18.40;99.90
16732;DHT22;8484;50.904;9.192;2023-08-12T02:00:52;18.50;99.90
16732;DHT22;8484;50.904;9.192;2023-08-12T02:03:19;18.50;99.90
16732;DHT22;8484;50.904;9.192;2023-08-12T02:05:46;18.60;99.90
16732;DHT22;8484;50.904;9.192;2023-08-12T02:08:13;18.60;99.90
16732;DHT22;8484;50.904;9.192;2023-08-12T02:10:40;18.60;99.90
16732;DHT22;8484;50.904;9.192;2023-08-12T02:13:08;18.60;99.90
16732;DHT22;8484;50.904;9.192;2023-08-12T02:15:35;18.50;99.90
16732;DHT22;8484;50.904;9.192;2023-08-12T02:18:03;18.50;99.90
16732;DHT22;8484;50.904;9.192;2023-08-12T02:20:30;18.50;99.90
16732;DHT22;8484;50.904;9.192;2023-08-12T02:22:57;18.60;99.90
16732;DHT22;8484;50.904;9.192;2023-08-12T02:25:23;18.70;99.90
16732;DHT22;8484;50.904;9.192;2023-08-12T02:27:50;18.70;99.90
16732;DHT22;8484;50.904;9.192;2023-08-12T02:30:18;18.80;99.90
16732;DHT22;8484;50.904;9.192;2023-08-12T02:32:45;18.70;99.90
16732;DHT22;8484;50.904;9.192;2023-08-12T02:35:12;18.60;99.90
16732;DHT22;8484;50.904;9.192;2023-08-12T02:37:39;18.60;99.90
16732;DHT22;8484;50.904;9.192;2023-08-12T02:40:07;18.50;99.90
16732;DHT22;8484;50.904;9.192;2023-08-12T02:42:34;18.50;99.90
16732;DHT22;8484;50.904;9.192;2023-08-12T02:45:01;18.40;99.90
16732;DHT22;8484;50.904;9.192;2023-08-12T02:47:29;18.30;99.90
16732;DHT22;8484;50.904;9.192;2023-08-12T02:49:56;18.30;99.90
16732;DHT22;8484;50.904;9.192;2023-08-12T02:52:23;18.20;99.90
16732;DHT22;8484;50.904;9.192;2023-08-12T02:54:50;18.20;99.90
16732;DHT22;8484;50.904;9.192;2023-08-12T02:57:17;18.20;99.90
16732;DHT22;8484;50.904;9.192;2023-08-12T02:59:44;18.20;99.90
16732;DHT22;8484;50.904;9.192;2023-08-12T03:02:10;18.30;99.90
16732;DHT22;8484;50.904;9.192;2023-08-12T03:04:39;18.20;99.90
16732;DHT22;8484;50.904;9.192;2023-08-12T03:07:05;18.20;99.90
16732;DHT22;8484;50.904;9.192;2023-08-12T03:09:32;18.10;99.90
16732;DHT22;8484;50.904;9.192;2023-08-12T03:11:59;18.30;99.90
16732;DHT22;8484;50.904;9.192;2023-08-12T03:14:29;18.40;99.90
16732;DHT22;8484;50.904;9.192;2023-08-12T03:16:56;18.40;99.90
16732;DHT22;8484;50.904;9.192;2023-08-12T03:19:23;18.30;99.90
16732;DHT22;8484;50.904;9.192;2023-08-12T03:21:51;18.20;99.90
16732;DHT22;8484;50.904;9.192;2023-08-12T03:24:20;18.10;99.90
16732;DHT22;8484;50.904;9.192;2023-08-12T03:26:47;18.20;99.90
16732;DHT22;8484;50.904;9.192;2023-08-12T03:29:14;18.40;99.90
16732;DHT22;8484;50.904;9.192;2023-08-12T03:31:41;18.20;99.90
16732;DHT22;8484;50.904;9.192;2023-08-12T03:34:08;18.00;99.90
16732;DHT22;8484;50.904;9.192;2023-08-12T03:36:35;17.90;99.90
16732;DHT22;8484;50.904;9.192;2023-08-12T03:39:04;18.10;99.90
16732;DHT22;8484;50.904;9.192;2023-08-12T03:41:31;17.80;99.90
16732;DHT22;8484;50.904;9.192;2023-08-12T03:43:58;17.80;99.90
16732;DHT22;8484;50.904;9.192;2023-08-12T03:46:25;17.90;99.90
16732;DHT22;8484;50.904;9.192;2023-08-12T03:48:52;18.00;99.90
16732;DHT22;8484;50.904;9.192;2023-08-12T03:51:19;17.80;99.90
16732;DHT22;8484;50.904;9.192;2023-08-12T03:53:45;17.90;99.90
16732;DHT22;8484;50.904;9.192;2023-08-12T03:56:13;18.00;99.90
16732;DHT22;8484;50.904;9.192;2023-08-12T03:58:42;18.10;99.90
16732;DHT22;8484;50.904;9.192;2023-08-12T04:01:09;18.20;99.90
16732;DHT22;8484;50.904;9.192;2023-08-12T04:03:36;18.20;99.90
16732;DHT22;8484;50.904;9.192;2023-08-12T04:06:02;18.20;99.90
16732;DHT22;8484;50.904;9.192;2023-08-12T04:08:29;18.30;99.90
16732;DHT22;8484;50.904;9.192;2023-08-12T04:10:57;18.30;99.90
16732;DHT22;8484;50.904;9.192;2023-08-12T04:13:26;18.30;99.90
16732;DHT22;8484;50.904;9.192;2023-08-12T04:15:53;18.20;99.90
16732;DHT22;8484;50.904;9.192;2023-08-12T04:18:19;18.30;99.90
16732;DHT22;8484;50.904;9.192;2023-08-12T04:20:48;18.30;99.90
16732;DHT22;8484;50.904;9.192;2023-08-12T04:23:15;18.30;99.90
16732;DHT22;8484;50.904;9.192;2023-08-12T04:25:43;18.30;99.90
16732;DHT22;8484;50.904;9.192;2023-08-12T04:28:10;18.20;99.90
16732;DHT22;8484;50.904;9.192;2023-08-12T04:30:41;18.20;99.90
16732;DHT22;8484;50.904;9.192;2023-08-12T04:33:08;18.10;99.90
16732;DHT22;8484;50.904;9.192;2023-08-12T04:35:35;18.00;99.90
16732;DHT22;8484;50.904;9.192;2023-08-12T04:38:02;18.00;99.90
16732;DHT22;8484;50.904;9.192;2023-08-12T04:40:29;17.90;99.90
16732;DHT22;8484;50.904;9.192;2023-08-12T04:42:56;17.70;99.90
16732;DHT22;8484;50.904;9.192;2023-08-12T04:45:23;17.90;99.90
16732;DHT22;8484;50.904;9.192;2023-08-12T04:47:52;18.00;99.90
16732;DHT22;8484;50.904;9.192;2023-08-12T04:50:19;18.10;99.90
16732;DHT22;8484;50.904;9.192;2023-08-12T04:52:46;18.00;99.90
16732;DHT22;8484;50.904;9.192;2023-08-12T04:55:13;17.90;99.90
16732;DHT22;8484;50.904;9.192;2023-08-12T04:57:40;17.80;99.90
16732;DHT22;8484;50.904;9.192;2023-08-12T05:00:07;17.90;99.90
16732;DHT22;8484;50.904;9.192;2023-08-12T05:02:34;17.90;99.90
16732;DHT22;8484;50.904;9.192;2023-08-12T05:05:03;18.00;99.90
16732;DHT22;8484;50.904;9.192;2023-08-12T05:07:30;18.10;99.90
16732;DHT22;8484;50.904;9.192;2023-08-12T05:09:59;18.10;99.90
16732;DHT22;8484;50.904;9.192;2023-08-12T05:12:26;18.00;99.90
16732;DHT22;8484;50.904;9.192;2023-08-12T05:14:53;17.90;99.90
16732;DHT22;8484;50.904;9.192;2023-08-12T05:17:20;18.00;99.90
16732;DHT22;8484;50.904;9.192;2023-08-12T05:19:47;18.00;99.90
16732;DHT22;8484;50.904;9.192;2023-08-12T05:22:17;18.10;99.90
16732;DHT22;8484;50.904;9.192;2023-08-12T05:24:44;18.10;99.90
16732;DHT22;8484;50.904;9.192;2023-08-12T05:27:11;18.00;99.90
16732;DHT22;8484;50.904;9.192;2023-08-12T05:29:38;17.90;99.90
16732;DHT22;8484;50.904;9.192;2023-08-12T05:32:05;17.90;99.90
16732;DHT22;8484;50.904;9.192;2023-08-12T05:34:32;17.90;99.90
16732;DHT22;8484;50.904;9.192;2023-08-12T05:36:58;17.80;99.90
16732;DHT22;8484;50.904;9.192;2023-08-12T05:39:27;17.80;99.90
16732;DHT22;8484;50.904;9.192;2023-08-12T05:41:53;17.70;99.90
16732;DHT22;8484;50.904;9.192;2023-08-12T05:44:20;17.70;99.90
16732;DHT22;8484;50.904;9.192;2023-08-12T05:46:47;17.80;99.90
16732;DHT22;8484;50.904;9.192;2023-08-12T05:49:14;17.60;99.90
16732;DHT22;8484;50.904;9.192;2023-08-12T05:51:41;17.50;99.90
16732;DHT22;8484;50.904;9.192;2023-08-12T05:54:08;17.50;99.90
16732;DHT22;8484;50.904;9.192;2023-08-12T05:56:36;17.40;99.90
16732;DHT22;8484;50.904;9.192;2023-08-12T05:59:03;17.40;99.90
16732;DHT22;8484;50.904;9.192;2023-08-12T06:01:30;17.30;99.90
16732;DHT22;8484;50.904;9.192;2023-08-12T06:03:57;17.60;99.90
16732;DHT22;8484;50.904;9.192;2023-08-12T06:06:24;17.50;99.90
16732;DHT22;8484;50.904;9.192;2023-08-12T06:08:50;17.60;99.90
16732;DHT22;8484;50.904;9.192;2023-08-12T06:11:17;17.70;99.90
16732;DHT22;8484;50.904;9.192;2023-08-12T06:13:45;18.00;99.90
16732;DHT22;8484;50.904;9.192;2023-08-12T06:16:12;18.10;99.90
16732;DHT22;8484;50.904;9.192;2023-08-12T06:18:39;18.40;99.90
16732;DHT22;8484;50.904;9.192;2023-08-12T06:21:06;18.60;99.90
16732;DHT22;8484;50.904;9.192;2023-08-12T06:23:33;18.80;99.90
16732;DHT22;8484;50.904;9.192;2023-08-12T06:26:00;18.90;99.90
16732;DHT22;8484;50.904;9.192;2023-08-12T06:28:27;18.90;99.90
16732;DHT22;8484;50.904;9.192;2023-08-12T06:30:56;18.90;99.90
16732;DHT22;8484;50.904;9.192;2023-08-12T06:33:23;18.90;99.90
16732;DHT22;8484;50.904;9.192;2023-08-12T06:35:50;19.00;99.90
16732;DHT22;8484;50.904;9.192;2023-08-12T06:38:17;19.10;99.90
16732;DHT22;8484;50.904;9.192;2023-08-12T06:40:44;19.10;99.90
16732;DHT22;8484;50.904;9.192;2023-08-12T06:43:12;19.30;99.90
16732;DHT22;8484;50.904;9.192;2023-08-12T06:45:39;19.30;99.90
16732;DHT22;8484;50.904;9.192;2023-08-12T06:48:07;19.50;99.90
16732;DHT22;8484;50.904;9.192;2023-08-12T06:50:34;19.60;99.90
16732;DHT22;8484;50.904;9.192;2023-08-12T06:53:01;19.60;99.90
16732;DHT22;8484;50.904;9.192;2023-08-12T06:55:28;19.60;99.90
16732;DHT22;8484;50.904;9.192;2023-08-12T06:57:55;19.50;99.90
16732;DHT22;8484;50.904;9.192;2023-08-12T07:00:22;19.50;99.90
16732;DHT22;8484;50.904;9.192;2023-08-12T07:02:49;19.50;99.90
16732;DHT22;8484;50.904;9.192;2023-08-12T07:05:17;19.40;99.90
16732;DHT22;8484;50.904;9.192;2023-08-12T07:07:47;19.70;99.90
16732;DHT22;8484;50.904;9.192;2023-08-12T07:10:14;20.00;99.90
16732;DHT22;8484;50.904;9.192;2023-08-12T07:12:40;20.20;99.90
16732;DHT22;8484;50.904;9.192;2023-08-12T07:15:08;20.20;99.90
16732;DHT22;8484;50.904;9.192;2023-08-12T07:17:36;20.20;99.90
16732;DHT22;8484;50.904;9.192;2023-08-12T07:20:04;20.70;99.90
16732;DHT22;8484;50.904;9.192;2023-08-12T07:22:32;20.80;99.90
16732;DHT22;8484;50.904;9.192;2023-08-12T07:24:59;21.10;99.90
16732;DHT22;8484;50.904;9.192;2023-08-12T07:27:26;21.30;99.90
16732;DHT22;8484;50.904;9.192;2023-08-12T07:29:53;21.80;99.90
16732;DHT22;8484;50.904;9.192;2023-08-12T07:32:21;22.10;99.90
16732;DHT22;8484;50.904;9.192;2023-08-12T07:34:48;22.30;99.90
16732;DHT22;8484;50.904;9.192;2023-08-12T07:37:15;22.30;99.90
16732;DHT22;8484;50.904;9.192;2023-08-12T07:39:43;22.40;99.90
16732;DHT22;8484;50.904;9.192;2023-08-12T07:42:10;22.70;99.90
16732;DHT22;8484;50.904;9.192;2023-08-12T07:44:37;22.60;99.90
16732;DHT22;8484;50.904;9.192;2023-08-12T07:47:04;22.40;99.90
16732;DHT22;8484;50.904;9.192;2023-08-12T07:49:31;22.60;99.90
16732;DHT22;8484;50.904;9.192;2023-08-12T07:51:59;22.80;99.90
16732;DHT22;8484;50.904;9.192;2023-08-12T07:54:26;22.80;99.90
16732;DHT22;8484;50.904;9.192;2023-08-12T07:56:55;23.20;99.90
16732;DHT22;8484;50.904;9.192;2023-08-12T07:59:23;23.50;99.90
16732;DHT22;8484;50.904;9.192;2023-08-12T08:01:52;23.40;99.90
16732;DHT22;8484;50.904;9.192;2023-08-12T08:04:19;23.10;99.90
16732;DHT22;8484;50.904;9.192;2023-08-12T08:06:46;22.80;99.90
16732;DHT22;8484;50.904;9.192;2023-08-12T08:09:13;22.50;99.90
16732;DHT22;8484;50.904;9.192;2023-08-12T08:11:40;22.40;99.90
16732;DHT22;8484;50.904;9.192;2023-08-12T08:14:08;22.60;99.90
16732;DHT22;8484;50.904;9.192;2023-08-12T08:16:35;23.10;99.90
16732;DHT22;8484;50.904;9.192;2023-08-12T08:19:05;23.40;99.90
16732;DHT22;8484;50.904;9.192;2023-08-12T08:21:32;23.70;99.90
16732;DHT22;8484;50.904;9.192;2023-08-12T08:23:59;23.50;99.90
16732;DHT22;8484;50.904;9.192;2023-08-12T08:26:26;22.90;99.90
16732;DHT22;8484;50.904;9.192;2023-08-12T08:28:53;22.80;99.90
16732;DHT22;8484;50.904;9.192;2023-08-12T08:31:21;22.80;99.90
16732;DHT22;8484;50.904;9.192;2023-08-12T08:33:48;22.90;99.90
16732;DHT22;8484;50.904;9.192;2023-08-12T08:36:18;23.10;99.90
16732;DHT22;8484;50.904;9.192;2023-08-12T08:38:45;23.30;99.90
16732;DHT22;8484;50.904;9.192;2023-08-12T08:41:12;23.00;99.90
16732;DHT22;8484;50.904;9.192;2023-08-12T08:43:41;23.30;99.90
16732;DHT22;8484;50.904;9.192;2023-08-12T08:46:10;23.30;99.90
16732;DHT22;8484;50.904;9.192;2023-08-12T08:48:42;23.20;99.90
16732;DHT22;8484;50.904;9.192;2023-08-12T08:51:11;23.40;99.90
16732;DHT22;8484;50.904;9.192;2023-08-12T08:53:38;23.50;99.90
16732;DHT22;8484;50.904;9.192;2023-08-12T08:56:07;23.20;99.90
16732;DHT22;8484;50.904;9.192;2023-08-12T08:58:37;23.10;99.90
16732;DHT22;8484;50.904;9.192;2023-08-12T09:01:05;23.10;99.90
16732;DHT22;8484;50.904;9.192;2023-08-12T09:03:34;23.00;99.90
16732;DHT22;8484;50.904;9.192;2023-08-12T09:06:03;22.90;99.90
16732;DHT22;8484;50.904;9.192;2023-08-12T09:08:31;22.60;99.90
16732;DHT22;8484;50.904;9.192;2023-08-12T09:10:59;22.60;99.90
16732;DHT22;8484;50.904;9.192;2023-08-12T09:13:26;22.40;99.90
16732;DHT22;8484;50.904;9.192;2023-08-12T09:15:54;22.30;99.90
16732;DHT22;8484;50.904;9.192;2023-08-12T09:18:21;22.30;99.90
16732;DHT22;8484;50.904;9.192;2023-08-12T09:20:49;22.30;99.90
16732;DHT22;8484;50.904;9.192;2023-08-12T09:23:18;22.20;99.90
16732;DHT22;8484;50.904;9.192;2023-08-12T09:25:45;22.30;99.90
16732;DHT22;8484;50.904;9.192;2023-08-12T09:28:12;22.30;99.90
16732;DHT22;8484;50.904;9.192;2023-08-12T09:30:39;22.40;99.90
16732;DHT22;8484;50.904;9.192;2023-08-12T09:33:08;22.70;99.90
16732;DHT22;8484;50.904;9.192;2023-08-12T09:35:37;22.90;99.90
16732;DHT22;8484;50.904;9.192;2023-08-12T09:38:06;23.20;99.90
16732;DHT22;8484;50.904;9.192;2023-08-12T09:40:35;24.10;99.90
16732;DHT22;8484;50.904;9.192;2023-08-12T09:43:02;24.40;99.90
16732;DHT22;8484;50.904;9.192;2023-08-12T09:45:30;24.50;99.90
16732;DHT22;8484;50.904;9.192;2023-08-12T09:47:57;24.20;99.90
16732;DHT22;8484;50.904;9.192;2023-08-12T09:50:25;24.00;99.90
16732;DHT22;8484;50.904;9.192;2023-08-12T09:52:53;24.20;99.90
16732;DHT22;8484;50.904;9.192;2023-08-12T09:55:23;24.00;99.90
16732;DHT22;8484;50.904;9.192;2023-08-12T09:57:53;23.70;99.90
16732;DHT22;8484;50.904;9.192;2023-08-12T10:00:21;23.70;99.90
16732;DHT22;8484;50.904;9.192;2023-08-12T10:02:49;23.70;99.90
16732;DHT22;8484;50.904;9.192;2023-08-12T10:05:20;23.90;99.90
16732;DHT22;8484;50.904;9.192;2023-08-12T10:07:48;23.90;99.90
16732;DHT22;8484;50.904;9.192;2023-08-12T10:10:15;23.60;99.90
16732;DHT22;8484;50.904;9.192;2023-08-12T10:12:42;23.50;99.90
16732;DHT22;8484;50.904;9.192;2023-08-12T10:15:12;23.40;99.90
16732;DHT22;8484;50.904;9.192;2023-08-12T10:17:40;23.20;99.90
16732;DHT22;8484;50.904;9.192;2023-08-12T10:20:12;23.40;99.90
16732;DHT22;8484;50.904;9.192;2023-08-12T10:22:40;23.80;99.90
16732;DHT22;8484;50.904;9.192;2023-08-12T10:25:09;24.50;99.90
16732;DHT22;8484;50.904;9.192;2023-08-12T10:27:37;25.00;99.90
16732;DHT22;8484;50.904;9.192;2023-08-12T10:30:04;25.30;99.90
16732;DHT22;8484;50.904;9.192;2023-08-12T10:32:34;25.30;99.90
16732;DHT22;8484;50.904;9.192;2023-08-12T10:35:02;25.10;99.90
16732;DHT22;8484;50.904;9.192;2023-08-12T10:37:32;24.60;99.90
16732;DHT22;8484;50.904;9.192;2023-08-12T10:40:02;24.20;99.90
16732;DHT22;8484;50.904;9.192;2023-08-12T10:42:42;24.20;99.90
16732;DHT22;8484;50.904;9.192;2023-08-12T10:45:11;24.30;99.90
16732;DHT22;8484;50.904;9.192;2023-08-12T10:48:09;24.30;99.90
16732;DHT22;8484;50.904;9.192;2023-08-12T10:50:38;24.50;99.90
16732;DHT22;8484;50.904;9.192;2023-08-12T10:53:24;24.70;99.90
16732;DHT22;8484;50.904;9.192;2023-08-12T10:55:56;24.40;99.90
16732;DHT22;8484;50.904;9.192;2023-08-12T10:58:27;24.50;99.90
16732;DHT22;8484;50.904;9.192;2023-08-12T11:00:55;24.20;99.90
16732;DHT22;8484;50.904;9.192;2023-08-12T11:03:24;24.20;99.90
16732;DHT22;8484;50.904;9.192;2023-08-12T11:05:55;23.90;99.90
16732;DHT22;8484;50.904;9.192;2023-08-12T11:08:26;23.70;99.90
16732;DHT22;8484;50.904;9.192;2023-08-12T11:10:55;23.60;99.90
16732;DHT22;8484;50.904;9.192;2023-08-12T11:13:27;23.60;99.90
16732;DHT22;8484;50.904;9.192;2023-08-12T11:16:06;23.60;99.90
16732;DHT22;8484;50.904;9.192;2023-08-12T11:18:34;23.80;99.90
16732;DHT22;8484;50.904;9.192;2023-08-12T11:21:02;23.80;99.90
16732;DHT22;8484;50.904;9.192;2023-08-12T11:23:30;23.60;99.90
16732;DHT22;8484;50.904;9.192;2023-08-12T11:25:58;23.60;99.90
16732;DHT22;8484;50.904;9.192;2023-08-12T11:28:25;23.60;99.90
16732;DHT22;8484;50.904;9.192;2023-08-12T11:30:54;23.20;99.90
16732;DHT22;8484;50.904;9.192;2023-08-12T11:33:21;23.10;99.90
16732;DHT22;8484;50.904;9.192;2023-08-12T11:35:51;22.90;99.90
16732;DHT22;8484;50.904;9.192;2023-08-12T11:38:19;22.90;99.90
16732;DHT22;8484;50.904;9.192;2023-08-12T11:40:45;22.90;99.90
16732;DHT22;8484;50.904;9.192;2023-08-12T11:43:12;22.70;99.90
16732;DHT22;8484;50.904;9.192;2023-08-12T11:45:41;22.80;99.90
16732;DHT22;8484;50.904;9.192;2023-08-12T11:48:09;22.70;99.90
16732;DHT22;8484;50.904;9.192;2023-08-12T11:50:36;22.60;99.90
16732;DHT22;8484;50.904;9.192;2023-08-12T11:53:06;22.50;99.90
16732;DHT22;8484;50.904;9.192;2023-08-12T11:55:33;22.40;99.90
16732;DHT22;8484;50.904;9.192;2023-08-12T11:58:00;22.30;99.90
16732;DHT22;8484;50.904;9.192;2023-08-12T12:00:27;22.30;99.90
16732;DHT22;8484;50.904;9.192;2023-08-12T12:02:55;22.30;99.90
16732;DHT22;8484;50.904;9.192;2023-08-12T12:05:27;22.20;99.90
16732;DHT22;8484;50.904;9.192;2023-08-12T12:07:55;22.30;99.90
16732;DHT22;8484;50.904;9.192;2023-08-12T12:10:28;22.20;99.90
16732;DHT22;8484;50.904;9.192;2023-08-12T12:12:55;22.30;99.90
16732;DHT22;8484;50.904;9.192;2023-08-12T12:15:23;22.50;99.90
16732;DHT22;8484;50.904;9.192;2023-08-12T12:17:52;22.60;99.90
16732;DHT22;8484;50.904;9.192;2023-08-12T12:20:19;22.60;99.90
16732;DHT22;8484;50.904;9.192;2023-08-12T12:22:47;22.80;99.90
16732;DHT22;8484;50.904;9.192;2023-08-12T12:25:16;23.30;99.90
16732;DHT22;8484;50.904;9.192;2023-08-12T12:27:47;23.70;99.90
16732;DHT22;8484;50.904;9.192;2023-08-12T12:30:15;25.00;99.90
16732;DHT22;8484;50.904;9.192;2023-08-12T12:32:43;26.00;99.90
16732;DHT22;8484;50.904;9.192;2023-08-12T12:35:10;25.60;99.90
16732;DHT22;8484;50.904;9.192;2023-08-12T12:37:38;24.90;99.90
16732;DHT22;8484;50.904;9.192;2023-08-12T12:40:05;24.30;99.90
16732;DHT22;8484;50.904;9.192;2023-08-12T12:42:38;24.00;99.90
16732;DHT22;8484;50.904;9.192;2023-08-12T12:45:08;24.00;99.90
16732;DHT22;8484;50.904;9.192;2023-08-12T12:47:35;24.10;99.90
16732;DHT22;8484;50.904;9.192;2023-08-12T12:50:03;23.80;99.90
16732;DHT22;8484;50.904;9.192;2023-08-12T12:52:30;23.70;99.90
16732;DHT22;8484;50.904;9.192;2023-08-12T12:54:57;23.80;99.90
16732;DHT22;8484;50.904;9.192;2023-08-12T12:57:25;23.80;99.90
16732;DHT22;8484;50.904;9.192;2023-08-12T12:59:52;23.60;99.90
16732;DHT22;8484;50.904;9.192;2023-08-12T13:02:20;23.60;99.90
16732;DHT22;8484;50.904;9.192;2023-08-12T13:04:47;23.60;99.90
16732;DHT22;8484;50.904;9.192;2023-08-12T13:07:15;23.60;99.90
16732;DHT22;8484;50.904;9.192;2023-08-12T13:09:42;23.60;99.90
16732;DHT22;8484;50.904;9.192;2023-08-12T13:12:09;23.60;99.90
16732;DHT22;8484;50.904;9.192;2023-08-12T13:14:35;23.50;99.90
16732;DHT22;8484;50.904;9.192;2023-08-12T13:17:02;23.30;99.90
16732;DHT22;8484;50.904;9.192;2023-08-12T13:19:31;23.20;99.90
16732;DHT22;8484;50.904;9.192;2023-08-12T13:21:58;23.30;99.90
16732;DHT22;8484;50.904;9.192;2023-08-12T13:24:25;23.40;99.90
16732;DHT22;8484;50.904;9.192;2023-08-12T13:26:52;23.50;99.90
16732;DHT22;8484;50.904;9.192;2023-08-12T13:29:20;23.60;99.90
16732;DHT22;8484;50.904;9.192;2023-08-12T13:31:47;23.70;99.90
16732;DHT22;8484;50.904;9.192;2023-08-12T13:34:14;23.90;99.90
16732;DHT22;8484;50.904;9.192;2023-08-12T13:36:42;24.20;99.90
16732;DHT22;8484;50.904;9.192;2023-08-12T13:39:09;24.50;99.90
16732;DHT22;8484;50.904;9.192;2023-08-12T13:41:36;24.60;99.90
16732;DHT22;8484;50.904;9.192;2023-08-12T13:44:03;24.70;99.90
16732;DHT22;8484;50.904;9.192;2023-08-12T13:46:30;24.90;99.90
16732;DHT22;8484;50.904;9.192;2023-08-12T13:48:57;25.30;99.90
16732;DHT22;8484;50.904;9.192;2023-08-12T13:51:24;25.00;99.90
16732;DHT22;8484;50.904;9.192;2023-08-12T13:53:52;24.90;99.90
16732;DHT22;8484;50.904;9.192;2023-08-12T13:56:19;25.30;99.90
16732;DHT22;8484;50.904;9.192;2023-08-12T13:58:46;25.40;99.90
16732;DHT22;8484;50.904;9.192;2023-08-12T14:01:13;25.20;99.90
16732;DHT22;8484;50.904;9.192;2023-08-12T14:03:39;24.80;99.90
16732;DHT22;8484;50.904;9.192;2023-08-12T14:06:06;24.60;99.90
16732;DHT22;8484;50.904;9.192;2023-08-12T14:08:33;24.30;99.90
16732;DHT22;8484;50.904;9.192;2023-08-12T14:11:01;24.10;99.90
16732;DHT22;8484;50.904;9.192;2023-08-12T14:13:29;24.20;99.90
16732;DHT22;8484;50.904;9.192;2023-08-12T14:15:56;24.60;99.90
16732;DHT22;8484;50.904;9.192;2023-08-12T14:18:23;24.70;99.90
16732;DHT22;8484;50.904;9.192;2023-08-12T14:20:51;25.20;99.90
16732;DHT22;8484;50.904;9.192;2023-08-12T14:23:18;25.40;99.90
16732;DHT22;8484;50.904;9.192;2023-08-12T14:25:45;25.50;99.90
16732;DHT22;8484;50.904;9.192;2023-08-12T14:28:13;25.60;99.90
16732;DHT22;8484;50.904;9.192;2023-08-12T14:30:40;25.50;99.90
16732;DHT22;8484;50.904;9.192;2023-08-12T14:33:07;25.60;99.90
16732;DHT22;8484;50.904;9.192;2023-08-12T14:35:34;25.90;99.90
16732;DHT22;8484;50.904;9.192;2023-08-12T14:38:01;25.70;99.90
16732;DHT22;8484;50.904;9.192;2023-08-12T14:40:28;25.60;99.90
16732;DHT22;8484;50.904;9.192;2023-08-12T14:42:55;26.10;99.90
16732;DHT22;8484;50.904;9.192;2023-08-12T14:45:23;26.60;99.90
16732;DHT22;8484;50.904;9.192;2023-08-12T14:47:50;26.80;99.90
16732;DHT22;8484;50.904;9.192;2023-08-12T14:50:17;27.10;99.90
16732;DHT22;8484;50.904;9.192;2023-08-12T14:52:48;27.00;99.90
16732;DHT22;8484;50.904;9.192;2023-08-12T14:55:15;26.70;99.90
16732;DHT22;8484;50.904;9.192;2023-08-12T14:57:42;26.70;99.90
16732;DHT22;8484;50.904;9.192;2023-08-12T15:00:10;26.20;99.90
16732;DHT22;8484;50.904;9.192;2023-08-12T15:02:38;25.60;99.90
16732;DHT22;8484;50.904;9.192;2023-08-12T15:05:05;25.80;99.90
16732;DHT22;8484;50.904;9.192;2023-08-12T15:07:34;26.20;99.90
16732;DHT22;8484;50.904;9.192;2023-08-12T15:10:01;26.70;99.90
16732;DHT22;8484;50.904;9.192;2023-08-12T15:12:29;26.70;99.90
16732;DHT22;8484;50.904;9.192;2023-08-12T15:14:56;26.50;99.90
16732;DHT22;8484;50.904;9.192;2023-08-12T15:17:25;26.60;99.90
16732;DHT22;8484;50.904;9.192;2023-08-12T15:19:54;26.80;99.90
16732;DHT22;8484;50.904;9.192;2023-08-12T15:22:21;26.70;99.90
16732;DHT22;8484;50.904;9.192;2023-08-12T15:24:48;26.90;99.90
16732;DHT22;8484;50.904;9.192;2023-08-12T15:27:25;27.00;99.90
16732;DHT22;8484;50.904;9.192;2023-08-12T15:29:56;27.20;99.90
16732;DHT22;8484;50.904;9.192;2023-08-12T15:32:24;26.80;99.90
16732;DHT22;8484;50.904;9.192;2023-08-12T15:34:55;26.50;99.90
16732;DHT22;8484;50.904;9.192;2023-08-12T15:37:31;26.10;99.90
16732;DHT22;8484;50.904;9.192;2023-08-12T15:40:08;26.00;99.90
16732;DHT22;8484;50.904;9.192;2023-08-12T15:42:35;25.90;99.90
16732;DHT22;8484;50.904;9.192;2023-08-12T15:45:04;25.70;99.90
16732;DHT22;8484;50.904;9.192;2023-08-12T15:47:31;25.60;99.90
16732;DHT22;8484;50.904;9.192;2023-08-12T15:50:00;25.40;99.90